Ames Lake, Washington
Current Conditions -  °F | °C
As of 8:53 PM on Sunday 21 Dec 2014 (Local Time) from KBFI Reporting Station
Overcast Overcast  
Wind Chill: 54°   Ceiling: 14000
Heat Index: 54°   Visibility: 10mi
Dew Point: 45°   Wind: 0mph
Humidity: 72%   Direction: NA
Pressure: 30.09"   Gusts: NA
Location:  47.6833°N, 122.123°W
Report Text: KBFI 220453Z 00000KT 10SM SCT020 OVC140 12/07 A3009 RMK AO2 SLP189 T01220072
Loading
Personal Weather Stations






























Interactive Weather Map New forecast layout! Learn more

10-Day Weather Forecast

Advertisements
Track Severe Weather on mobile